Lookout, Kentucky
Current Conditions -  °F | °C
As of 12:15 AM on Thursday 23 Oct 2014 (Local Time) from KPBX Reporting Station
Overcast Overcast  
Wind Chill: 43°   Ceiling: 1200
Heat Index: 46°   Visibility: 10mi
Dew Point: 43°   Wind: 5mph
Humidity: 90%   Direction: 350°N
Pressure: 30.22"   Gusts: NA
Location:  37.31°N, 82.47°W
Report Text: KPBX 230415Z AUTO 35004KT 10SM BKN012 OVC024 08/06 A3022 RMK AO2 T00750060
Loading
Personal Weather Stations






























Interactive Weather Map
Tropical Storm Tracking
New forecast layout! Learn more

10-Day Weather Forecast

Advertisements
Track Severe Weather on mobile